createdAt,value
2024-05-09T00:00:31.066Z,69.2
2024-05-09T00:01:37.838Z,69.2
2024-05-09T00:05:17.542Z,69.3
2024-05-09T00:06:24.244Z,69.3
2024-05-09T00:07:25.397Z,69.3
2024-05-09T00:08:28.999Z,69.3
2024-05-09T00:09:39.948Z,69.4
2024-05-09T00:10:45.226Z,69.4
2024-05-09T00:11:58.668Z,69.4
2024-05-09T00:12:59.951Z,69.4
2024-05-09T00:14:01.271Z,69.4
2024-05-09T00:15:02.441Z,69.4
2024-05-09T00:16:03.622Z,69.5
2024-05-09T00:17:04.903Z,69.5
2024-05-09T00:18:08.549Z,69.5
2024-05-09T00:19:10.389Z,69.5
2024-05-09T00:20:35.614Z,69.5
2024-05-09T00:21:42.238Z,69.6
2024-05-09T00:22:43.576Z,69.6
2024-05-09T00:23:44.765Z,69.6
2024-05-09T00:24:45.911Z,69.6
2024-05-09T00:25:47.211Z,69.6
2024-05-09T00:26:48.377Z,69.6
2024-05-09T00:27:49.551Z,69.6
2024-05-09T00:28:51.044Z,69.7
2024-05-09T00:29:52.232Z,69.7
2024-05-09T00:30:53.397Z,69.7
2024-05-09T00:31:54.895Z,69.7
2024-05-09T00:32:56.514Z,69.7
2024-05-09T00:33:58.559Z,69.8
2024-05-09T00:34:59.871Z,69.8
2024-05-09T00:36:01.063Z,69.8
2024-05-09T00:37:02.241Z,69.8
2024-05-09T00:38:04.647Z,69.8
2024-05-09T00:39:05.992Z,69.8
2024-05-09T00:40:30.267Z,69.8
2024-05-09T00:41:37.139Z,69.9
2024-05-09T00:42:38.348Z,69.9
2024-05-09T00:43:39.530Z,69.9
2024-05-09T00:44:40.686Z,69.9
2024-05-09T00:45:41.880Z,69.9
2024-05-09T00:46:43.191Z,69.9
2024-05-09T00:47:44.722Z,70
2024-05-09T00:48:46.172Z,70
2024-05-09T00:49:47.831Z,70
2024-05-09T00:50:49.200Z,70
2024-05-09T00:51:50.402Z,70.1
2024-05-09T00:52:51.879Z,70.1
2024-05-09T00:53:55.869Z,70.1
2024-05-09T00:54:57.016Z,70.1
2024-05-09T00:55:58.254Z,70.1
2024-05-09T00:56:59.438Z,70.1
2024-05-09T00:58:00.625Z,70.2
2024-05-09T00:59:01.887Z,70.2
2024-05-09T01:00:09.884Z,70.2
2024-05-09T01:01:16.005Z,70.2
2024-05-09T01:02:17.496Z,70.3
2024-05-09T01:03:20.000Z,70.3
2024-05-09T01:04:21.696Z,70.3
2024-05-09T01:05:22.983Z,70.3
2024-05-09T01:06:24.233Z,70.3
2024-05-09T01:07:25.385Z,70.3
2024-05-09T01:08:26.658Z,70.3
2024-05-09T01:09:27.825Z,70.4
2024-05-09T01:10:36.974Z,70.4
2024-05-09T01:11:38.521Z,70.4
2024-05-09T01:12:39.950Z,70.4
2024-05-09T01:13:41.143Z,70.4
2024-05-09T01:14:42.299Z,70.4
2024-05-09T01:15:43.488Z,70.5
2024-05-09T01:16:44.773Z,70.5
2024-05-09T01:17:46.775Z,70.5
2024-05-09T01:18:48.288Z,70.5
2024-05-09T01:19:49.696Z,70.5
2024-05-09T01:20:50.922Z,70.5
2024-05-09T01:21:52.099Z,70.5
2024-05-09T01:22:53.395Z,70.5
2024-05-09T01:23:54.542Z,70.6
2024-05-09T01:24:55.716Z,70.6
2024-05-09T01:25:56.884Z,70.6
2024-05-09T01:26:58.044Z,70.6
2024-05-09T01:27:59.218Z,70.6
2024-05-09T01:29:00.428Z,70.6
2024-05-09T01:30:01.625Z,70.6
2024-05-09T01:31:05.455Z,70.6
2024-05-09T01:32:06.981Z,70.7
2024-05-09T01:33:13.384Z,70.7
2024-05-09T01:34:14.911Z,70.7
2024-05-09T01:35:16.108Z,70.7
2024-05-09T01:36:17.275Z,70.7
2024-05-09T01:37:18.440Z,70.8
2024-05-09T01:38:19.663Z,70.8
2024-05-09T01:39:20.805Z,70.8
2024-05-09T01:40:39.982Z,70.8
2024-05-09T01:41:41.579Z,70.8
2024-05-09T01:42:42.781Z,70.8
2024-05-09T01:43:44.005Z,70.8
2024-05-09T01:44:45.138Z,70.8
2024-05-09T01:45:46.328Z,70.8
2024-05-09T01:46:47.551Z,70.9
2024-05-09T01:47:49.209Z,70.9
2024-05-09T01:48:50.848Z,70.9
2024-05-09T01:49:52.196Z,70.9
2024-05-09T01:50:53.540Z,70.9
2024-05-09T01:51:54.686Z,70.9
2024-05-09T01:52:55.935Z,70.9
2024-05-09T01:53:57.070Z,71
2024-05-09T01:54:59.569Z,71
2024-05-09T01:56:02.604Z,71
2024-05-09T01:57:03.774Z,71
2024-05-09T01:58:05.066Z,71
2024-05-09T01:59:06.439Z,71
2024-05-09T02:00:12.980Z,71
2024-05-09T02:01:16.929Z,71
2024-05-09T02:02:18.786Z,71.1
2024-05-09T02:03:20.530Z,71.1
2024-05-09T02:04:22.369Z,71.1
2024-05-09T02:05:24.040Z,71.1
2024-05-09T02:06:25.233Z,71.1
2024-05-09T02:07:26.399Z,71.1
2024-05-09T02:08:27.616Z,71.1
2024-05-09T02:09:28.758Z,71.1
2024-05-09T02:10:34.188Z,71.1
2024-05-09T02:11:35.859Z,71.2
2024-05-09T02:12:37.039Z,71.2
2024-05-09T02:13:38.220Z,71.2
2024-05-09T02:14:39.462Z,71.2
2024-05-09T02:15:40.654Z,71.2
2024-05-09T02:16:41.827Z,71.3
2024-05-09T02:17:43.866Z,71.3
2024-05-09T02:18:45.480Z,71.3
2024-05-09T02:19:49.413Z,71.3
2024-05-09T02:20:50.738Z,71.4
2024-05-09T02:21:51.874Z,71.4
2024-05-09T02:22:53.243Z,71.4
2024-05-09T02:23:54.390Z,71.4
2024-05-09T02:24:55.554Z,71.5
2024-05-09T02:25:56.839Z,71.5
2024-05-09T02:26:58.017Z,71.5
2024-05-09T02:27:59.385Z,71.5
2024-05-09T02:29:00.794Z,71.5
2024-05-09T02:30:29.412Z,71.5
2024-05-09T02:31:37.122Z,71.5
2024-05-09T02:32:38.746Z,71.5
2024-05-09T02:33:40.507Z,71.5
2024-05-09T02:34:41.900Z,71.6
2024-05-09T02:35:44.918Z,71.6
2024-05-09T02:36:46.068Z,71.6
2024-05-09T02:37:47.278Z,71.6
2024-05-09T02:38:48.439Z,71.6
2024-05-09T02:39:49.606Z,71.6
2024-05-09T02:40:50.834Z,71.6
2024-05-09T02:41:52.011Z,71.6
2024-05-09T02:42:53.183Z,71.6
2024-05-09T02:43:54.446Z,71.6
2024-05-09T02:44:55.585Z,71.6
2024-05-09T02:45:56.750Z,71.6
2024-05-09T02:46:57.996Z,71.6
2024-05-09T02:48:00.704Z,71.6
2024-05-09T02:49:02.744Z,71.6
2024-05-09T02:50:08.695Z,71.6
2024-05-09T02:51:12.125Z,71.6
2024-05-09T02:52:13.350Z,71.6
2024-05-09T02:53:15.511Z,71.6
2024-05-09T02:54:16.688Z,71.6
2024-05-09T02:55:17.869Z,71.6
2024-05-09T02:56:19.204Z,71.6
2024-05-09T02:57:20.429Z,71.6
2024-05-09T02:58:21.899Z,71.6
2024-05-09T02:59:23.694Z,71.6
2024-05-09T03:00:42.164Z,71.6
2024-05-09T03:01:44.609Z,71.7
2024-05-09T03:02:46.175Z,71.7
2024-05-09T03:03:48.150Z,71.7
2024-05-09T03:04:49.845Z,71.7
2024-05-09T03:05:51.124Z,71.7
2024-05-09T03:06:52.366Z,71.7
2024-05-09T03:07:53.538Z,71.7
2024-05-09T03:08:54.692Z,71.7
2024-05-09T03:09:55.860Z,71.7
2024-05-09T03:10:57.114Z,71.8
2024-05-09T03:11:58.584Z,71.8
2024-05-09T03:12:59.774Z,71.8
2024-05-09T03:14:01.073Z,71.8
2024-05-09T03:15:02.278Z,71.8
2024-05-09T03:16:03.525Z,71.8
2024-05-09T03:17:04.820Z,71.8
2024-05-09T03:18:07.529Z,71.8
2024-05-09T03:19:08.942Z,71.8
2024-05-09T03:20:30.311Z,71.8
2024-05-09T03:21:34.435Z,71.8
2024-05-09T03:22:35.701Z,71.8
2024-05-09T03:23:37.048Z,71.9
2024-05-09T03:24:38.196Z,71.9
2024-05-09T03:25:39.716Z,71.9
2024-05-09T03:26:40.945Z,71.9
2024-05-09T03:27:42.098Z,71.9
2024-05-09T03:28:43.383Z,71.9
2024-05-09T03:29:44.548Z,72
2024-05-09T03:30:45.704Z,72
2024-05-09T03:31:47.098Z,72
2024-05-09T03:32:49.065Z,72
2024-05-09T03:33:50.827Z,72
2024-05-09T03:34:52.050Z,72
2024-05-09T03:35:53.190Z,72.1
2024-05-09T03:36:54.362Z,72.1
2024-05-09T03:37:55.564Z,72.1
2024-05-09T03:38:56.719Z,72.1
2024-05-09T03:39:57.891Z,72.2
2024-05-09T03:40:59.106Z,72.2
2024-05-09T03:42:00.266Z,72.2
2024-05-09T03:43:01.471Z,72.2
2024-05-09T03:44:02.694Z,72.3
2024-05-09T03:45:03.875Z,72.3
2024-05-09T03:46:05.025Z,72.3
2024-05-09T03:47:06.576Z,72.3
2024-05-09T03:48:08.647Z,72.3
2024-05-09T03:49:10.367Z,72.3
2024-05-09T03:50:35.092Z,72.3
2024-05-09T03:51:37.147Z,72.3
2024-05-09T03:52:38.329Z,72.4
2024-05-09T03:53:39.894Z,72.4
2024-05-09T03:54:41.144Z,72.4
2024-05-09T03:55:42.336Z,72.4
2024-05-09T03:56:43.557Z,72.4
2024-05-09T03:57:44.712Z,72.4
2024-05-09T03:58:45.955Z,72.5
2024-05-09T03:59:47.153Z,72.5
2024-05-09T04:00:49.122Z,72.5
2024-05-09T04:01:50.542Z,72.5
2024-05-09T04:02:52.058Z,72.5
2024-05-09T04:03:53.763Z,72.6
2024-05-09T04:04:55.203Z,72.6
2024-05-09T04:05:56.344Z,72.6
2024-05-09T04:06:57.510Z,72.6
2024-05-09T04:07:58.899Z,72.6
2024-05-09T04:09:00.094Z,72.7
2024-05-09T04:10:01.256Z,72.7
2024-05-09T04:11:02.775Z,72.7
2024-05-09T04:12:04.349Z,72.7
2024-05-09T04:13:05.797Z,72.8
2024-05-09T04:14:07.260Z,72.8
2024-05-09T04:15:14.031Z,72.8
2024-05-09T04:16:15.474Z,72.8
2024-05-09T04:17:16.774Z,72.8
2024-05-09T04:18:18.134Z,72.8
2024-05-09T04:19:19.741Z,72.8
2024-05-09T04:20:40.950Z,72.8
2024-05-09T04:21:42.614Z,72.9
2024-05-09T04:22:43.826Z,72.9
2024-05-09T04:23:45.056Z,72.9
2024-05-09T04:24:46.193Z,72.9
2024-05-09T04:25:47.544Z,72.9
2024-05-09T04:26:48.732Z,72.9
2024-05-09T04:27:49.900Z,72.9
2024-05-09T04:28:51.239Z,73
2024-05-09T04:29:52.529Z,73
2024-05-09T04:30:53.715Z,73
2024-05-09T04:31:55.378Z,73
2024-05-09T04:32:56.944Z,73
2024-05-09T04:33:58.642Z,73
2024-05-09T04:34:59.933Z,73
2024-05-09T04:36:01.102Z,73.1
2024-05-09T04:37:02.263Z,73.1
2024-05-09T04:38:03.764Z,73.1
2024-05-09T04:39:04.938Z,73.1
2024-05-09T04:40:24.437Z,73.1
2024-05-09T04:41:32.801Z,73.1
2024-05-09T04:42:34.044Z,73.2
2024-05-09T04:43:35.216Z,73.2
2024-05-09T04:44:36.457Z,73.2
2024-05-09T04:45:37.660Z,73.2
2024-05-09T04:46:38.796Z,73.2
2024-05-09T04:47:40.407Z,73.2
2024-05-09T04:48:41.927Z,73.2
2024-05-09T04:49:43.283Z,73.3
2024-05-09T04:50:44.716Z,73.3
2024-05-09T04:51:45.926Z,73.3
2024-05-09T04:52:47.187Z,73.3
2024-05-09T04:53:48.523Z,73.3
2024-05-09T04:54:49.674Z,73.3
2024-05-09T04:55:50.926Z,73.3
2024-05-09T04:56:52.100Z,73.4
2024-05-09T04:57:53.250Z,73.4
2024-05-09T04:58:54.504Z,73.4
2024-05-09T04:59:55.643Z,73.4
2024-05-09T05:00:56.934Z,73.4
2024-05-09T05:01:58.426Z,73.4
2024-05-09T05:03:00.333Z,73.4
2024-05-09T05:04:02.199Z,73.5
2024-05-09T05:05:04.111Z,73.5
2024-05-09T05:06:05.424Z,73.5
2024-05-09T05:07:06.646Z,73.5
2024-05-09T05:08:07.822Z,73.5
2024-05-09T05:09:08.958Z,73.5
2024-05-09T05:10:29.467Z,73.5
2024-05-09T05:11:36.663Z,73.6
2024-05-09T05:12:37.838Z,73.6
2024-05-09T05:13:42.486Z,73.6
2024-05-09T05:14:43.618Z,73.6
2024-05-09T05:15:44.967Z,73.6
2024-05-09T05:16:49.135Z,73.6
2024-05-09T05:17:51.160Z,73.6
2024-05-09T05:18:52.812Z,73.7
2024-05-09T05:19:54.568Z,73.7
2024-05-09T05:20:56.420Z,73.7
2024-05-09T05:21:57.657Z,73.7
2024-05-09T05:22:58.868Z,73.7
2024-05-09T05:24:00.000Z,73.7
2024-05-09T05:25:01.166Z,73.7
2024-05-09T05:26:02.416Z,73.8
2024-05-09T05:27:03.563Z,73.8
2024-05-09T05:28:04.724Z,73.8
2024-05-09T05:29:05.950Z,73.8
2024-05-09T05:30:25.427Z,73.8
2024-05-09T05:31:30.420Z,73.9
2024-05-09T05:32:32.132Z,73.9
2024-05-09T05:33:33.776Z,73.9
2024-05-09T05:34:35.003Z,73.9
2024-05-09T05:35:36.301Z,73.9
2024-05-09T05:36:37.461Z,73.9
2024-05-09T05:37:38.631Z,74
2024-05-09T05:38:39.848Z,74
2024-05-09T05:39:41.027Z,74
2024-05-09T05:40:42.294Z,74
2024-05-09T05:41:43.508Z,74
2024-05-09T05:42:44.772Z,74.1
2024-05-09T05:43:46.008Z,74.1
2024-05-09T05:44:47.220Z,74.1
2024-05-09T05:45:48.384Z,74.1
2024-05-09T05:46:49.595Z,74.1
2024-05-09T05:47:51.486Z,74.2
2024-05-09T05:48:53.059Z,74.2
2024-05-09T05:49:54.337Z,74.2
2024-05-09T05:50:55.699Z,74.2
2024-05-09T05:51:56.853Z,74.2
2024-05-09T05:52:58.092Z,74.2
2024-05-09T05:53:59.220Z,74.3
2024-05-09T05:55:00.396Z,74.3
2024-05-09T05:56:01.883Z,74.3
2024-05-09T05:57:03.104Z,74.3
2024-05-09T05:58:04.332Z,74.3
2024-05-09T05:59:05.814Z,74.3
2024-05-09T06:00:21.943Z,74.3
2024-05-09T06:01:30.601Z,74.3
2024-05-09T06:02:31.989Z,74.4
2024-05-09T06:03:33.629Z,74.4
2024-05-09T06:04:35.012Z,74.4
2024-05-09T06:05:36.556Z,74.4
2024-05-09T06:06:37.777Z,74.4
2024-05-09T06:07:38.947Z,74.4
2024-05-09T06:08:43.357Z,74.4
2024-05-09T06:09:50.503Z,74.4
2024-05-09T06:10:52.029Z,74.4
2024-05-09T06:11:53.638Z,74.4
2024-05-09T06:12:54.832Z,74.4
2024-05-09T06:13:56.045Z,74.4
2024-05-09T06:16:15.653Z,74.5
2024-05-09T06:17:19.570Z,74.5
2024-05-09T06:18:39.152Z,74.5
2024-05-09T06:19:48.344Z,74.6
2024-05-09T06:21:19.041Z,74.6
2024-05-09T06:23:38.172Z,74.6
2024-05-09T06:24:46.112Z,74.6
2024-05-09T06:26:01.502Z,74.6
2024-05-09T06:27:07.449Z,74.6
2024-05-09T06:28:08.619Z,74.6
2024-05-09T06:29:12.811Z,74.6
2024-05-09T06:30:41.281Z,74.6
2024-05-09T06:31:52.314Z,74.6
2024-05-09T06:33:07.467Z,74.6
2024-05-09T06:56:30.032Z,73.7
2024-05-09T06:57:42.997Z,73.6
2024-05-09T06:59:47.977Z,73.5
2024-05-09T07:02:10.130Z,73.4
2024-05-09T07:15:59.430Z,73.2
2024-05-09T07:17:10.880Z,71.8
2024-05-09T07:18:42.686Z,71.6
2024-05-09T07:22:21.388Z,71.3
2024-05-09T08:01:55.314Z,70.9
2024-05-09T08:02:56.730Z,52.8
2024-05-09T08:04:05.487Z,52.4
2024-05-09T08:05:53.929Z,52
2024-05-09T08:06:56.460Z,51.3
2024-05-09T08:46:55.369Z,51
2024-05-09T08:48:09.121Z,34.3
2024-05-09T08:50:44.175Z,34.2
2024-05-09T08:51:46.113Z,34
2024-05-09T08:52:53.212Z,34
2024-05-09T08:53:54.356Z,33.9
2024-05-09T08:54:55.833Z,33.7
2024-05-09T08:56:04.722Z,33.5
2024-05-09T08:57:14.564Z,33.4
2024-05-09T08:58:25.974Z,33.4
2024-05-09T08:59:53.525Z,33.3
2024-05-09T09:01:41.226Z,33.4
2024-05-09T09:05:07.608Z,32.6
2024-05-09T09:06:08.830Z,32.3
2024-05-09T09:07:10.341Z,32.2
2024-05-09T09:08:11.547Z,32.2
2024-05-09T09:29:15.577Z,31.9
2024-05-09T09:30:37.879Z,29.9
2024-05-09T09:31:48.246Z,29.8
2024-05-09T09:33:46.199Z,29.7
2024-05-09T09:36:26.038Z,29.3
2024-05-09T09:37:31.963Z,29.1
2024-05-09T09:40:32.872Z,28.9
2024-05-09T09:41:41.672Z,28.5
2024-05-09T09:42:47.210Z,28.4
2024-05-09T09:45:54.065Z,28.3
2024-05-09T09:46:58.400Z,28.3
2024-05-09T09:47:59.920Z,28.3
2024-05-09T09:49:04.004Z,28.3
2024-05-09T09:50:23.552Z,28.3
2024-05-09T09:51:34.720Z,28
2024-05-09T09:52:38.680Z,28
2024-05-09T09:54:48.790Z,27.7
2024-05-09T09:55:55.998Z,27.5
2024-05-09T09:56:57.141Z,27.1
2024-05-09T09:58:08.694Z,27
2024-05-09T09:59:14.786Z,26.9
2024-05-09T10:00:34.755Z,26.7
2024-05-09T10:01:39.232Z,26.4
2024-05-09T10:02:40.507Z,26.2
2024-05-09T10:03:48.241Z,26.2
2024-05-09T10:04:49.657Z,26.3
2024-05-09T10:05:53.776Z,26.1
2024-05-09T10:06:55.195Z,26.2
2024-05-09T10:26:40.059Z,25.9
2024-05-09T10:27:48.454Z,25.7
2024-05-09T10:29:02.772Z,25.6
2024-05-09T10:46:20.507Z,24
2024-05-09T10:47:25.051Z,23.9
2024-05-09T10:48:40.082Z,23.6
2024-05-09T10:49:48.726Z,23.6
2024-05-09T10:51:00.300Z,23.8
2024-05-09T10:52:13.711Z,23.8
2024-05-09T10:53:21.877Z,23.8
2024-05-09T10:54:28.894Z,23.9
2024-05-09T10:55:35.395Z,23.9
2024-05-09T10:56:57.630Z,23.7
2024-05-09T10:58:12.232Z,23.6
2024-05-09T10:59:25.045Z,23.3
2024-05-09T11:01:51.233Z,23
2024-05-09T11:03:03.283Z,22.8
2024-05-09T11:05:32.479Z,22.6
2024-05-09T11:06:47.188Z,22.3
2024-05-09T11:07:55.439Z,22.2
2024-05-09T11:09:11.381Z,21.9
2024-05-09T11:48:52.755Z,21.8
2024-05-09T11:50:01.346Z,24.5
2024-05-09T11:51:21.067Z,24.4
2024-05-09T11:52:32.855Z,24.4
2024-05-09T11:53:34.218Z,24.4
2024-05-09T11:54:45.209Z,24.5
2024-05-09T11:55:46.367Z,24.6
2024-05-09T11:57:37.950Z,24.6
2024-05-09T11:59:58.235Z,24.5
2024-05-09T12:02:26.337Z,24.2
2024-05-09T12:03:33.021Z,24.3
2024-05-09T12:04:52.001Z,24.4
2024-05-09T12:05:56.597Z,25
2024-05-09T12:07:05.315Z,23.7
2024-05-09T12:08:39.193Z,23.6
2024-05-09T12:09:43.421Z,23.9
2024-05-09T12:10:50.525Z,22.8
2024-05-09T12:50:31.382Z,23
2024-05-09T12:51:37.648Z,24.6
2024-05-09T12:52:50.169Z,24.8
2024-05-09T12:55:03.106Z,25.6
2024-05-09T12:56:31.806Z,25.5
2024-05-09T12:57:47.233Z,25.5
2024-05-09T12:58:48.392Z,25.5
2024-05-09T12:59:55.546Z,25.5
2024-05-09T13:00:59.302Z,25.5
2024-05-09T13:42:25.338Z,26.6
2024-05-09T13:43:36.966Z,26.4
2024-05-09T13:44:47.143Z,25.8
2024-05-09T13:47:06.576Z,26.3
2024-05-09T13:50:50.807Z,26.8
2024-05-09T13:52:10.066Z,26.7
2024-05-09T13:53:18.498Z,26.7
2024-05-09T14:35:34.559Z,28.1
2024-05-09T14:36:43.704Z,30
2024-05-09T14:37:47.624Z,29.9
2024-05-09T14:38:54.267Z,30.3
2024-05-09T14:39:55.570Z,30.5
2024-05-09T14:40:59.423Z,30.6
2024-05-09T14:42:06.187Z,30.6
2024-05-09T14:43:10.500Z,30.6
2024-05-09T14:44:19.954Z,30.8
2024-05-09T14:46:10.413Z,30.6
2024-05-09T14:47:31.293Z,30.5
2024-05-09T14:48:53.848Z,30.4
2024-05-09T14:50:11.054Z,30.1
2024-05-09T15:29:55.889Z,30.5
2024-05-09T15:30:57.226Z,33.4
2024-05-09T15:32:03.807Z,33.5
2024-05-09T15:33:08.144Z,33.6
2024-05-09T15:34:09.564Z,33.7
2024-05-09T15:35:12.966Z,33.7
2024-05-09T15:36:14.084Z,33.8
2024-05-09T15:37:15.376Z,33.9
2024-05-09T15:38:16.551Z,34
2024-05-09T15:39:20.827Z,33.9
2024-05-09T15:40:41.432Z,34.1
2024-05-09T15:41:45.517Z,33.9
2024-05-09T15:42:46.770Z,34.1
2024-05-09T15:43:50.316Z,34.2
2024-05-09T15:44:51.483Z,34.3
2024-05-09T15:45:55.513Z,34.3
2024-05-09T15:46:59.623Z,34.3
2024-05-09T15:48:04.725Z,34.4
2024-05-09T15:49:11.517Z,34.1
2024-05-09T15:50:38.739Z,34.1
2024-05-09T15:51:42.581Z,34
2024-05-09T15:52:43.767Z,33.8
2024-05-09T15:53:47.622Z,33.8
2024-05-09T15:54:48.946Z,33.8
2024-05-09T15:55:50.179Z,33.8
2024-05-09T15:56:51.554Z,33.9
2024-05-09T15:57:55.399Z,34
2024-05-09T15:58:56.556Z,34.2
2024-05-09T15:59:57.729Z,34.3
2024-05-09T16:01:07.979Z,34.3
2024-05-09T16:02:14.775Z,34.3
2024-05-09T16:03:28.554Z,34.4
2024-05-09T16:04:32.533Z,34.4
2024-05-09T16:05:48.050Z,34.4
2024-05-09T16:06:49.728Z,34.4
2024-05-09T16:08:04.979Z,34.4
2024-05-09T16:09:29.333Z,34.5
2024-05-09T16:10:36.099Z,34.5
2024-05-09T16:11:40.105Z,34.5
2024-05-09T16:12:43.941Z,34.5
2024-05-09T16:13:45.230Z,34.5
2024-05-09T16:14:46.394Z,34.6
2024-05-09T16:15:51.332Z,34.6
2024-05-09T16:17:00.624Z,34.7
2024-05-09T16:18:02.193Z,34.7
2024-05-09T16:19:08.265Z,34.7
2024-05-09T16:20:37.192Z,34.7
2024-05-09T16:21:47.370Z,34.5
2024-05-09T16:22:48.622Z,34.4
2024-05-09T16:23:49.770Z,34.4
2024-05-09T16:25:03.793Z,34.4
2024-05-09T16:26:07.909Z,34.4
2024-05-09T16:27:09.178Z,34.4
2024-05-09T16:28:14.786Z,34.4
2024-05-09T16:29:20.622Z,34.4
2024-05-09T16:30:36.780Z,34.4
2024-05-09T16:31:40.935Z,34.3
2024-05-09T16:32:58.700Z,34.3
2024-05-09T16:34:11.677Z,34.3
2024-05-09T16:35:12.880Z,34.4
2024-05-09T16:36:14.035Z,34.5
2024-05-09T16:37:15.445Z,34.6
2024-05-09T16:38:16.679Z,34.8
2024-05-09T16:39:17.844Z,35.2
2024-05-09T16:40:40.945Z,35.5
2024-05-09T16:41:42.722Z,36
2024-05-09T16:42:43.975Z,36.4
2024-05-09T16:43:45.151Z,36.6
2024-05-09T16:44:46.323Z,36.7
2024-05-09T16:45:47.572Z,36.7
2024-05-09T16:46:48.737Z,36.6
2024-05-09T16:47:50.059Z,36.5
2024-05-09T16:48:51.475Z,36.5
2024-05-09T16:49:52.697Z,36.5
2024-05-09T16:50:53.879Z,36.5
2024-05-09T16:51:55.221Z,36.5
2024-05-09T16:52:56.447Z,36.6
2024-05-09T16:54:00.568Z,36.7
2024-05-09T16:55:05.003Z,36.8
2024-05-09T16:56:08.608Z,36.9
2024-05-09T16:57:09.750Z,37
2024-05-09T16:58:11.057Z,37.1
2024-05-09T16:59:12.216Z,37.2
2024-05-09T17:00:40.151Z,37.3
2024-05-09T17:01:46.572Z,37.4
2024-05-09T17:02:47.904Z,37.4
2024-05-09T17:03:49.594Z,37.5
2024-05-09T17:04:54.053Z,37.6
2024-05-09T17:05:55.754Z,37.7
2024-05-09T17:06:59.228Z,37.8
2024-05-09T17:08:03.045Z,37.7
2024-05-09T17:09:19.534Z,37.7
2024-05-09T17:10:37.814Z,37.7
2024-05-09T17:11:41.787Z,37.7
2024-05-09T17:12:43.055Z,37.7
2024-05-09T17:13:48.651Z,37.7
2024-05-09T17:14:49.771Z,37.7
2024-05-09T17:15:51.539Z,37.8
2024-05-09T17:16:55.530Z,37.8
2024-05-09T17:17:57.099Z,37.8
2024-05-09T17:18:58.385Z,37.8
2024-05-09T17:19:59.655Z,37.8
2024-05-09T17:21:03.524Z,37.8
2024-05-09T17:22:04.968Z,37.8
2024-05-09T17:23:08.372Z,37.8
2024-05-09T17:24:23.452Z,37.8
2024-05-09T17:25:29.606Z,38
2024-05-09T17:26:33.911Z,38.2
2024-05-09T17:27:35.089Z,38.3
2024-05-09T17:28:47.509Z,38.4
2024-05-09T17:29:56.768Z,38.6
2024-05-09T17:31:00.833Z,38.7
2024-05-09T17:32:11.382Z,38.8
2024-05-09T17:33:18.252Z,39
2024-05-09T17:34:28.170Z,39.2
2024-05-09T17:35:32.413Z,39.2
2024-05-09T17:36:33.868Z,39.3
2024-05-09T17:37:37.633Z,39.3
2024-05-09T17:38:41.843Z,39.4
2024-05-09T17:39:43.262Z,39.5
2024-05-09T17:40:44.584Z,39.6
2024-05-09T17:41:45.928Z,39.6
2024-05-09T17:42:49.247Z,39.7
2024-05-09T17:43:53.431Z,39.8
2024-05-09T17:44:54.572Z,39.8
2024-05-09T17:45:58.831Z,39.9
2024-05-09T17:47:00.132Z,40
2024-05-09T17:48:04.889Z,40.1
2024-05-09T17:49:06.469Z,40.2
2024-05-09T17:50:27.792Z,40.2
2024-05-09T17:51:35.382Z,40.4
2024-05-09T17:52:36.525Z,40.6
2024-05-09T17:53:37.694Z,40.8
2024-05-09T17:54:38.938Z,41
2024-05-09T17:55:40.619Z,41.2
2024-05-09T17:56:41.890Z,41.5
2024-05-09T17:57:43.120Z,41.8
2024-05-09T17:58:44.495Z,42.1
2024-05-09T17:59:45.657Z,42.4
2024-05-09T18:00:47.300Z,42.7
2024-05-09T18:01:48.719Z,42.9
2024-05-09T18:02:50.085Z,43.2
2024-05-09T18:03:51.677Z,43.5
2024-05-09T18:04:55.975Z,43.9
2024-05-09T18:05:57.552Z,44.1
2024-05-09T18:06:58.847Z,44.5
2024-05-09T18:08:00.101Z,44.7
2024-05-09T18:09:01.235Z,45
2024-05-09T18:10:02.795Z,45.3
2024-05-09T18:11:04.533Z,45.6
2024-05-09T18:12:05.760Z,45.9
2024-05-09T18:13:08.204Z,46.1
2024-05-09T18:14:09.736Z,46.4
2024-05-09T18:15:13.087Z,46.7
2024-05-09T18:16:17.115Z,47
2024-05-09T18:17:18.330Z,47.2
2024-05-09T18:18:19.802Z,47.5
2024-05-09T18:19:24.028Z,47.7
2024-05-09T18:20:46.023Z,48
2024-05-09T18:21:47.734Z,48.3
2024-05-09T18:22:49.066Z,48.6
2024-05-09T18:23:50.218Z,48.8
2024-05-09T18:24:54.236Z,49.1
2024-05-09T18:25:55.571Z,49.3
2024-05-09T18:26:56.744Z,49.5
2024-05-09T18:28:00.866Z,49.7
2024-05-09T18:29:02.022Z,50
2024-05-09T18:30:14.359Z,50.2
2024-05-09T18:31:22.153Z,50.4
2024-05-09T18:32:23.598Z,50.6
2024-05-09T18:33:25.733Z,50.8
2024-05-09T18:34:30.121Z,51
2024-05-09T18:35:31.306Z,51.2
2024-05-09T18:36:32.620Z,51.4
2024-05-09T18:37:36.517Z,51.5
2024-05-09T18:38:37.714Z,51.7
2024-05-09T18:39:39.047Z,51.9
2024-05-09T18:40:47.249Z,52.1
2024-05-09T18:41:50.184Z,52.3
2024-05-09T18:42:51.413Z,52.4
2024-05-09T18:43:52.876Z,52.5
2024-05-09T18:44:54.025Z,52.7
2024-05-09T18:45:55.242Z,52.8
2024-05-09T18:46:59.482Z,53
2024-05-09T18:48:01.508Z,53.2
2024-05-09T18:49:03.349Z,53.3
2024-05-09T18:50:17.706Z,53.5
2024-05-09T18:51:26.005Z,53.7
2024-05-09T18:52:27.182Z,53.8
2024-05-09T18:53:28.334Z,54
2024-05-09T18:54:29.519Z,54.1
2024-05-09T18:55:33.229Z,54.3
2024-05-09T18:56:34.593Z,54.4
2024-05-09T18:57:35.802Z,54.5
2024-05-09T18:58:36.960Z,54.7
2024-05-09T18:59:38.129Z,54.8
2024-05-09T19:00:49.282Z,55
2024-05-09T19:01:51.882Z,55.1
2024-05-09T19:02:56.885Z,55.2
2024-05-09T19:03:58.553Z,55.4
2024-05-09T19:04:59.991Z,55.5
2024-05-09T19:06:01.592Z,55.6
2024-05-09T19:07:02.921Z,55.7
2024-05-09T19:08:04.245Z,55.9
2024-05-09T19:09:05.523Z,56
2024-05-09T19:10:25.938Z,56.1
2024-05-09T19:11:30.200Z,56.3
2024-05-09T19:12:31.507Z,56.4
2024-05-09T19:13:33.202Z,56.5
2024-05-09T19:14:34.473Z,56.6
2024-05-09T19:15:35.670Z,56.7
2024-05-09T19:16:36.927Z,56.8
2024-05-09T19:17:38.273Z,56.9
2024-05-09T19:18:39.945Z,57
2024-05-09T19:19:41.347Z,57.1
2024-05-09T19:20:43.018Z,57.2
2024-05-09T19:21:44.346Z,57.3
2024-05-09T19:22:45.556Z,57.4
2024-05-09T19:23:55.222Z,57.5
2024-05-09T19:24:56.509Z,57.6
2024-05-09T19:28:36.485Z,57.9
2024-05-09T19:29:54.041Z,58
2024-05-09T19:31:04.700Z,58.2
2024-05-09T19:32:29.951Z,58.3
2024-05-09T19:33:36.712Z,58.4
2024-05-09T19:34:40.899Z,58.5
2024-05-09T19:35:45.431Z,58.6
2024-05-09T19:36:54.722Z,58.7
2024-05-09T19:37:55.883Z,58.7
2024-05-09T19:38:57.073Z,58.8
2024-05-09T19:39:58.251Z,58.9
2024-05-09T19:40:59.475Z,59
2024-05-09T19:42:00.607Z,59.1
2024-05-09T19:43:04.465Z,59.1
2024-05-09T19:44:06.326Z,59.2
2024-05-09T19:45:07.489Z,59.3
2024-05-09T19:46:08.861Z,59.3
2024-05-09T19:47:10.046Z,59.4
2024-05-09T19:48:13.942Z,59.5
2024-05-09T19:49:15.457Z,59.6
2024-05-09T19:50:40.162Z,59.6
2024-05-09T19:51:44.965Z,59.7
2024-05-09T19:52:46.124Z,59.8
2024-05-09T19:53:47.285Z,59.8
2024-05-09T19:54:48.489Z,59.9
2024-05-09T19:55:49.641Z,60
2024-05-09T19:56:50.807Z,60.1
2024-05-09T19:57:55.335Z,60.1
2024-05-09T19:58:56.505Z,60.2
2024-05-09T19:59:57.706Z,60.2
2024-05-09T20:00:59.123Z,60.3
2024-05-09T20:02:00.886Z,60.4
2024-05-09T20:03:02.664Z,60.5
2024-05-09T20:04:04.674Z,60.5
2024-05-09T20:05:06.920Z,60.6
2024-05-09T20:06:08.369Z,60.7
2024-05-09T20:07:10.064Z,60.7
2024-05-09T20:08:11.286Z,60.8
2024-05-09T20:09:12.461Z,60.8
2024-05-09T20:10:34.455Z,60.9
2024-05-09T20:11:37.285Z,61
2024-05-09T20:12:38.709Z,61.1
2024-05-09T20:13:39.898Z,61.1
2024-05-09T20:14:41.038Z,61.2
2024-05-09T20:15:42.406Z,61.3
2024-05-09T20:16:43.587Z,61.3
2024-05-09T20:17:45.059Z,61.4
2024-05-09T20:18:49.646Z,61.5
2024-05-09T20:19:51.260Z,61.5
2024-05-09T20:20:55.168Z,61.6
2024-05-09T20:21:56.492Z,61.6
2024-05-09T20:22:57.655Z,61.7
2024-05-09T20:24:01.346Z,61.8
2024-05-09T20:25:02.527Z,61.8
2024-05-09T20:26:09.473Z,61.9
2024-05-09T20:27:10.641Z,62
2024-05-09T20:28:12.400Z,62
2024-05-09T20:29:13.624Z,62.1
2024-05-09T20:30:33.124Z,62.1
2024-05-09T20:31:35.373Z,62.2
2024-05-09T20:32:42.417Z,62.2
2024-05-09T20:33:44.084Z,62.3
2024-05-09T20:34:45.270Z,62.3
2024-05-09T20:35:46.430Z,62.4
2024-05-09T20:36:47.650Z,62.4
2024-05-09T20:37:51.612Z,62.5
2024-05-09T20:38:52.832Z,62.5
2024-05-09T20:39:54.012Z,62.6
2024-05-09T20:40:58.006Z,62.6
2024-05-09T20:41:59.139Z,62.7
2024-05-09T20:43:03.654Z,62.7
2024-05-09T20:44:08.156Z,62.8
2024-05-09T20:45:12.177Z,62.9
2024-05-09T20:46:13.436Z,62.9
2024-05-09T20:47:14.616Z,63
2024-05-09T20:48:16.267Z,63
2024-05-09T20:49:18.719Z,63
2024-05-09T20:50:41.641Z,63.1
2024-05-09T20:51:46.308Z,63.1
2024-05-09T20:52:47.503Z,63.2
2024-05-09T20:53:48.680Z,63.2
2024-05-09T20:54:55.809Z,63.3
2024-05-09T20:55:57.025Z,63.4
2024-05-09T20:56:58.168Z,63.4
2024-05-09T20:57:59.771Z,63.5
2024-05-09T20:59:00.909Z,63.5
2024-05-09T21:00:02.503Z,63.6
2024-05-09T21:01:04.811Z,63.6
2024-05-09T21:02:06.353Z,63.7